Roscoe, MT (59071)

8:52 AM MST on December 05, 2016 (GMT -0700)
Willow Creek Road | | Change Station
Active Advisory: Winter Weather Advisory

Elev 5102 ft 45.27 °N, 109.26 °W | Updated 22 seconds ago

Overcast
Overcast
14.9 °F
Feels Like 6 °F
N
6.0
Wind Variable Wind from NNW

Today
High -- | Low -- °F
--% Chance of Precip.
Yesterday
High -- | Low -- °F
Precip. -- in
Pressure 29.95 in
Visibility 10.0 miles
Clouds Mostly Cloudy 6500 ft
Overcast 8000 ft
Windchill 6 °F
Dew Point 12 °F
Humidity 91%
Rainfall 0.00 in
Snow Depth Not available.
7:42 AM 4:35 PM
Waxing Crescent, 32% visible
METAR KLVM 051453Z AUTO 31015G25KT 10SM BKN065 OVC080 M08/M13 A2982 RMK AO2 SNE24 SLP142 P0000 60000 T10831133 53028
Pressure 29.95 in
Visibility 10.0 miles
Clouds Mostly Cloudy 6500 ft
Overcast 8000 ft
Windchill 6 °F
Dew Point 12 °F
Humidity 91%
Rainfall 0.00 in
Snow Depth Not available.
7:42 AM 4:35 PM
Waxing Crescent, 32% visible
METAR KLVM 051453Z AUTO 31015G25KT 10SM BKN065 OVC080 M08/M13 A2982 RMK AO2 SNE24 SLP142 P0000 60000 T10831133 53028

10-Day Weather Forecast

Almanac

Astronomy

Dec. 05, 2016 Rise Set
Actual Time
Civil Twilight
Nautical Twilight
Astronomical Twilight
Moon
Length of Visible Light
Length of Day
Tomorrow will be .
, % of the Moon is Illuminated

Today's Extremes

State Highs State Lows

Community

WunderPhotos

Upload Photos

1,955,794 photos uploaded!

WunderBlog® & News

Nearby

Air Quality

  Air Quality AQ Index Pollutant
Not available.

Snow Depth

Station Depth Elevation

Earthquake Activity

City Distance Mag. Time & Date
Minimum magnitude displayed is 2.5.

Coastal Water Temperatures

Place Temperature

Stations

Nearby Weather Stations

Station Location Temp. Windchill Dew Point Humidity Wind Precip. Elev Updated Type
                   

Watches & Warnings

Winter Weather Advisory
Issued: 4:06 AM MST Dec. 5, 2016 – National Weather Service

... Winter Weather Advisory remains in effect until 6 PM MST this
evening...

* impacts... snow and falling temperatures will cause slick roads
and poor travel conditions.

* Timing... through today.

* Additional snow accumulation... 1 to 2 inches... except 2 to 3 inches
along the north facing foothills.

* Slick roads... accumulating snow has caused roads to be snow
packed and slick.

Precautionary/preparedness actions...

A Winter Weather Advisory can be issued for a variety of winter
weather conditions such as light snow... blowing snow... sleet...
freezing rain... and extreme wind chills.